sensor_id;sensor_type;location;lat;lon;timestamp;P1;durP1;ratioP1;P2;durP2;ratioP2
51862;SDS011;37900;52.996;6.278;2023-07-20T00:01:15;4.18;;;1.85;;
51862;SDS011;37900;52.996;6.278;2023-07-20T00:03:41;4.10;;;2.38;;
51862;SDS011;37900;52.996;6.278;2023-07-20T00:06:07;3.15;;;1.88;;
51862;SDS011;37900;52.996;6.278;2023-07-20T00:08:32;5.13;;;2.42;;
51862;SDS011;37900;52.996;6.278;2023-07-20T00:10:58;2.90;;;1.70;;
51862;SDS011;37900;52.996;6.278;2023-07-20T00:13:24;4.65;;;2.00;;
51862;SDS011;37900;52.996;6.278;2023-07-20T00:15:51;3.95;;;2.22;;
51862;SDS011;37900;52.996;6.278;2023-07-20T00:20:46;2.97;;;1.92;;
51862;SDS011;37900;52.996;6.278;2023-07-20T00:23:12;3.20;;;2.20;;
51862;SDS011;37900;52.996;6.278;2023-07-20T00:25:37;2.58;;;1.77;;
51862;SDS011;37900;52.996;6.278;2023-07-20T00:28:03;4.13;;;2.15;;
51862;SDS011;37900;52.996;6.278;2023-07-20T00:30:29;5.85;;;2.35;;
51862;SDS011;37900;52.996;6.278;2023-07-20T00:32:55;3.08;;;1.92;;
51862;SDS011;37900;52.996;6.278;2023-07-20T00:35:20;2.22;;;1.90;;
51862;SDS011;37900;52.996;6.278;2023-07-20T00:37:46;4.32;;;1.67;;
51862;SDS011;37900;52.996;6.278;2023-07-20T00:40:11;4.72;;;1.88;;
51862;SDS011;37900;52.996;6.278;2023-07-20T00:42:37;4.95;;;2.10;;
51862;SDS011;37900;52.996;6.278;2023-07-20T00:45:03;3.53;;;2.00;;
51862;SDS011;37900;52.996;6.278;2023-07-20T00:47:29;4.50;;;2.20;;
51862;SDS011;37900;52.996;6.278;2023-07-20T00:49:55;3.30;;;2.10;;
51862;SDS011;37900;52.996;6.278;2023-07-20T00:52:23;3.60;;;1.67;;
51862;SDS011;37900;52.996;6.278;2023-07-20T00:54:50;4.15;;;1.80;;
51862;SDS011;37900;52.996;6.278;2023-07-20T00:57:17;3.25;;;1.73;;
51862;SDS011;37900;52.996;6.278;2023-07-20T00:59:44;3.35;;;1.90;;
51862;SDS011;37900;52.996;6.278;2023-07-20T01:02:09;1.92;;;1.38;;
51862;SDS011;37900;52.996;6.278;2023-07-20T01:04:35;4.15;;;1.95;;
51862;SDS011;37900;52.996;6.278;2023-07-20T01:07:17;3.17;;;1.90;;
51862;SDS011;37900;52.996;6.278;2023-07-20T01:09:52;2.67;;;1.90;;
51862;SDS011;37900;52.996;6.278;2023-07-20T01:12:39;2.20;;;1.50;;
51862;SDS011;37900;52.996;6.278;2023-07-20T01:15:06;3.30;;;1.65;;
51862;SDS011;37900;52.996;6.278;2023-07-20T01:17:33;2.58;;;1.90;;
51862;SDS011;37900;52.996;6.278;2023-07-20T01:19:59;1.80;;;1.50;;
51862;SDS011;37900;52.996;6.278;2023-07-20T01:30:42;3.22;;;1.95;;
51862;SDS011;37900;52.996;6.278;2023-07-20T01:33:33;3.83;;;2.00;;
51862;SDS011;37900;52.996;6.278;2023-07-20T01:35:59;2.87;;;1.50;;
51862;SDS011;37900;52.996;6.278;2023-07-20T01:38:25;1.95;;;1.30;;
51862;SDS011;37900;52.996;6.278;2023-07-20T01:40:51;3.63;;;1.48;;
51862;SDS011;37900;52.996;6.278;2023-07-20T01:43:18;3.67;;;1.40;;
51862;SDS011;37900;52.996;6.278;2023-07-20T01:45:43;2.83;;;1.50;;
51862;SDS011;37900;52.996;6.278;2023-07-20T01:48:09;3.03;;;1.67;;
51862;SDS011;37900;52.996;6.278;2023-07-20T01:50:35;2.33;;;1.50;;
51862;SDS011;37900;52.996;6.278;2023-07-20T01:53:01;3.63;;;1.83;;
51862;SDS011;37900;52.996;6.278;2023-07-20T01:55:27;3.40;;;1.95;;
51862;SDS011;37900;52.996;6.278;2023-07-20T01:57:54;2.13;;;1.40;;
51862;SDS011;37900;52.996;6.278;2023-07-20T02:00:20;2.42;;;1.60;;
51862;SDS011;37900;52.996;6.278;2023-07-20T02:02:49;4.10;;;1.75;;
51862;SDS011;37900;52.996;6.278;2023-07-20T02:05:15;1.73;;;1.17;;
51862;SDS011;37900;52.996;6.278;2023-07-20T02:07:41;2.60;;;1.50;;
51862;SDS011;37900;52.996;6.278;2023-07-20T02:10:07;2.47;;;1.73;;
51862;SDS011;37900;52.996;6.278;2023-07-20T02:12:33;3.15;;;1.52;;
51862;SDS011;37900;52.996;6.278;2023-07-20T02:14:59;2.58;;;1.40;;
51862;SDS011;37900;52.996;6.278;2023-07-20T02:17:25;2.10;;;1.30;;
51862;SDS011;37900;52.996;6.278;2023-07-20T02:19:53;2.13;;;1.40;;
51862;SDS011;37900;52.996;6.278;2023-07-20T02:22:20;2.80;;;1.55;;
51862;SDS011;37900;52.996;6.278;2023-07-20T02:24:46;2.67;;;1.35;;
51862;SDS011;37900;52.996;6.278;2023-07-20T02:27:11;1.63;;;1.38;;
51862;SDS011;37900;52.996;6.278;2023-07-20T02:29:37;1.73;;;1.25;;
51862;SDS011;37900;52.996;6.278;2023-07-20T02:32:03;3.50;;;1.60;;
51862;SDS011;37900;52.996;6.278;2023-07-20T02:34:29;2.03;;;1.45;;
51862;SDS011;37900;52.996;6.278;2023-07-20T02:36:55;2.13;;;1.42;;
51862;SDS011;37900;52.996;6.278;2023-07-20T02:39:29;2.72;;;1.48;;
51862;SDS011;37900;52.996;6.278;2023-07-20T02:41:54;2.88;;;1.50;;
51862;SDS011;37900;52.996;6.278;2023-07-20T02:44:20;2.17;;;1.42;;
51862;SDS011;37900;52.996;6.278;2023-07-20T02:46:46;3.47;;;1.50;;
51862;SDS011;37900;52.996;6.278;2023-07-20T02:49:11;2.05;;;1.30;;
51862;SDS011;37900;52.996;6.278;2023-07-20T02:51:37;3.08;;;1.65;;
51862;SDS011;37900;52.996;6.278;2023-07-20T02:54:03;1.92;;;1.63;;
51862;SDS011;37900;52.996;6.278;2023-07-20T02:56:28;2.97;;;1.50;;
51862;SDS011;37900;52.996;6.278;2023-07-20T02:58:54;2.35;;;1.20;;
51862;SDS011;37900;52.996;6.278;2023-07-20T03:01:20;1.85;;;1.50;;
51862;SDS011;37900;52.996;6.278;2023-07-20T03:03:46;1.55;;;1.05;;
51862;SDS011;37900;52.996;6.278;2023-07-20T03:06:13;2.80;;;1.60;;
51862;SDS011;37900;52.996;6.278;2023-07-20T03:08:40;2.50;;;1.50;;
51862;SDS011;37900;52.996;6.278;2023-07-20T03:11:17;1.50;;;1.05;;
51862;SDS011;37900;52.996;6.278;2023-07-20T03:13:44;2.80;;;1.50;;
51862;SDS011;37900;52.996;6.278;2023-07-20T03:16:10;3.00;;;1.70;;
51862;SDS011;37900;52.996;6.278;2023-07-20T03:18:40;1.70;;;1.27;;
51862;SDS011;37900;52.996;6.278;2023-07-20T03:21:07;1.92;;;1.40;;
51862;SDS011;37900;52.996;6.278;2023-07-20T03:23:33;1.30;;;1.13;;
51862;SDS011;37900;52.996;6.278;2023-07-20T03:26:00;3.28;;;1.70;;
51862;SDS011;37900;52.996;6.278;2023-07-20T03:28:26;2.03;;;1.27;;
51862;SDS011;37900;52.996;6.278;2023-07-20T03:30:58;3.50;;;1.60;;
51862;SDS011;37900;52.996;6.278;2023-07-20T03:33:28;1.98;;;1.30;;
51862;SDS011;37900;52.996;6.278;2023-07-20T03:35:54;1.65;;;1.25;;
51862;SDS011;37900;52.996;6.278;2023-07-20T03:38:21;1.58;;;1.10;;
51862;SDS011;37900;52.996;6.278;2023-07-20T03:40:50;1.52;;;1.30;;
51862;SDS011;37900;52.996;6.278;2023-07-20T03:43:23;1.75;;;1.20;;
51862;SDS011;37900;52.996;6.278;2023-07-20T03:48:16;2.25;;;1.02;;
51862;SDS011;37900;52.996;6.278;2023-07-20T03:50:44;1.45;;;1.13;;
51862;SDS011;37900;52.996;6.278;2023-07-20T03:53:11;1.48;;;1.08;;
51862;SDS011;37900;52.996;6.278;2023-07-20T03:55:37;2.17;;;1.42;;
51862;SDS011;37900;52.996;6.278;2023-07-20T03:58:05;1.35;;;1.08;;
51862;SDS011;37900;52.996;6.278;2023-07-20T04:00:31;1.90;;;1.35;;
51862;SDS011;37900;52.996;6.278;2023-07-20T04:02:57;3.22;;;1.50;;
51862;SDS011;37900;52.996;6.278;2023-07-20T04:05:24;1.73;;;1.10;;
51862;SDS011;37900;52.996;6.278;2023-07-20T04:07:50;1.83;;;1.30;;
51862;SDS011;37900;52.996;6.278;2023-07-20T04:10:17;1.63;;;1.25;;
51862;SDS011;37900;52.996;6.278;2023-07-20T04:12:44;1.95;;;1.20;;
51862;SDS011;37900;52.996;6.278;2023-07-20T04:15:10;2.53;;;1.60;;
51862;SDS011;37900;52.996;6.278;2023-07-20T04:17:36;2.53;;;1.40;;
51862;SDS011;37900;52.996;6.278;2023-07-20T04:20:02;2.25;;;1.20;;
51862;SDS011;37900;52.996;6.278;2023-07-20T04:22:28;1.90;;;1.27;;
51862;SDS011;37900;52.996;6.278;2023-07-20T04:24:54;2.10;;;1.17;;
51862;SDS011;37900;52.996;6.278;2023-07-20T04:27:20;1.88;;;1.10;;
51862;SDS011;37900;52.996;6.278;2023-07-20T04:29:45;2.30;;;1.20;;
51862;SDS011;37900;52.996;6.278;2023-07-20T04:32:11;1.20;;;0.90;;
51862;SDS011;37900;52.996;6.278;2023-07-20T04:34:36;1.13;;;0.90;;
51862;SDS011;37900;52.996;6.278;2023-07-20T04:37:03;1.90;;;1.30;;
51862;SDS011;37900;52.996;6.278;2023-07-20T04:39:29;1.63;;;1.10;;
51862;SDS011;37900;52.996;6.278;2023-07-20T04:41:56;1.88;;;1.10;;
51862;SDS011;37900;52.996;6.278;2023-07-20T04:44:22;1.92;;;1.17;;
51862;SDS011;37900;52.996;6.278;2023-07-20T04:46:47;2.45;;;1.15;;
51862;SDS011;37900;52.996;6.278;2023-07-20T04:49:13;1.13;;;0.98;;
51862;SDS011;37900;52.996;6.278;2023-07-20T04:51:39;1.77;;;1.27;;
51862;SDS011;37900;52.996;6.278;2023-07-20T04:54:05;2.58;;;1.27;;
51862;SDS011;37900;52.996;6.278;2023-07-20T04:56:30;1.63;;;1.00;;
51862;SDS011;37900;52.996;6.278;2023-07-20T04:58:56;1.80;;;1.10;;
51862;SDS011;37900;52.996;6.278;2023-07-20T05:01:22;2.47;;;1.17;;
51862;SDS011;37900;52.996;6.278;2023-07-20T05:03:48;1.03;;;0.90;;
51862;SDS011;37900;52.996;6.278;2023-07-20T05:06:14;1.67;;;1.08;;
51862;SDS011;37900;52.996;6.278;2023-07-20T05:08:41;1.97;;;1.13;;
51862;SDS011;37900;52.996;6.278;2023-07-20T05:11:06;1.75;;;1.17;;
51862;SDS011;37900;52.996;6.278;2023-07-20T05:13:32;1.52;;;1.13;;
51862;SDS011;37900;52.996;6.278;2023-07-20T05:15:58;2.90;;;1.60;;
51862;SDS011;37900;52.996;6.278;2023-07-20T05:18:24;1.70;;;1.13;;
51862;SDS011;37900;52.996;6.278;2023-07-20T05:20:50;7.63;;;1.67;;
51862;SDS011;37900;52.996;6.278;2023-07-20T05:23:19;1.35;;;1.05;;
51862;SDS011;37900;52.996;6.278;2023-07-20T05:25:45;2.17;;;1.23;;
51862;SDS011;37900;52.996;6.278;2023-07-20T05:28:11;1.63;;;1.40;;
51862;SDS011;37900;52.996;6.278;2023-07-20T05:30:37;2.70;;;1.10;;
51862;SDS011;37900;52.996;6.278;2023-07-20T05:33:03;1.70;;;1.10;;
51862;SDS011;37900;52.996;6.278;2023-07-20T05:35:29;2.30;;;0.90;;
51862;SDS011;37900;52.996;6.278;2023-07-20T05:37:54;1.20;;;0.88;;
51862;SDS011;37900;52.996;6.278;2023-07-20T05:40:20;1.27;;;1.05;;
51862;SDS011;37900;52.996;6.278;2023-07-20T05:42:46;2.22;;;0.80;;
51862;SDS011;37900;52.996;6.278;2023-07-20T05:45:14;1.95;;;1.27;;
51862;SDS011;37900;52.996;6.278;2023-07-20T05:47:41;0.93;;;0.63;;
51862;SDS011;37900;52.996;6.278;2023-07-20T05:50:07;0.95;;;0.77;;
51862;SDS011;37900;52.996;6.278;2023-07-20T05:52:32;1.55;;;0.93;;
51862;SDS011;37900;52.996;6.278;2023-07-20T05:54:58;1.63;;;1.15;;
51862;SDS011;37900;52.996;6.278;2023-07-20T05:57:24;1.20;;;1.08;;
51862;SDS011;37900;52.996;6.278;2023-07-20T05:59:50;2.22;;;1.38;;
51862;SDS011;37900;52.996;6.278;2023-07-20T06:02:16;2.08;;;1.30;;
51862;SDS011;37900;52.996;6.278;2023-07-20T06:04:41;1.20;;;1.00;;
51862;SDS011;37900;52.996;6.278;2023-07-20T06:07:07;1.08;;;0.90;;
51862;SDS011;37900;52.996;6.278;2023-07-20T06:09:33;1.85;;;1.20;;
51862;SDS011;37900;52.996;6.278;2023-07-20T06:11:59;1.43;;;1.00;;
51862;SDS011;37900;52.996;6.278;2023-07-20T06:14:25;1.75;;;0.90;;
51862;SDS011;37900;52.996;6.278;2023-07-20T06:16:51;1.30;;;0.77;;
51862;SDS011;37900;52.996;6.278;2023-07-20T06:19:17;1.70;;;1.00;;
51862;SDS011;37900;52.996;6.278;2023-07-20T06:21:43;1.95;;;0.90;;
51862;SDS011;37900;52.996;6.278;2023-07-20T06:24:08;1.65;;;1.05;;
51862;SDS011;37900;52.996;6.278;2023-07-20T06:26:34;1.67;;;1.00;;
51862;SDS011;37900;52.996;6.278;2023-07-20T06:29:06;4.57;;;1.17;;
51862;SDS011;37900;52.996;6.278;2023-07-20T06:31:32;1.60;;;1.10;;
51862;SDS011;37900;52.996;6.278;2023-07-20T06:33:58;3.28;;;1.33;;
51862;SDS011;37900;52.996;6.278;2023-07-20T06:36:24;1.45;;;1.10;;
51862;SDS011;37900;52.996;6.278;2023-07-20T06:38:51;2.05;;;1.08;;
51862;SDS011;37900;52.996;6.278;2023-07-20T06:41:17;1.77;;;1.08;;
51862;SDS011;37900;52.996;6.278;2023-07-20T06:43:43;1.25;;;1.00;;
51862;SDS011;37900;52.996;6.278;2023-07-20T06:46:09;2.00;;;0.93;;
51862;SDS011;37900;52.996;6.278;2023-07-20T06:48:35;1.48;;;1.02;;
51862;SDS011;37900;52.996;6.278;2023-07-20T06:51:01;1.90;;;1.15;;
51862;SDS011;37900;52.996;6.278;2023-07-20T06:53:27;6.57;;;1.30;;
51862;SDS011;37900;52.996;6.278;2023-07-20T06:55:54;2.13;;;0.88;;
51862;SDS011;37900;52.996;6.278;2023-07-20T06:58:22;3.05;;;1.25;;
51862;SDS011;37900;52.996;6.278;2023-07-20T07:00:51;3.63;;;0.73;;
51862;SDS011;37900;52.996;6.278;2023-07-20T07:03:17;2.20;;;1.17;;
51862;SDS011;37900;52.996;6.278;2023-07-20T07:05:43;1.35;;;0.90;;
51862;SDS011;37900;52.996;6.278;2023-07-20T07:08:10;3.20;;;1.05;;
51862;SDS011;37900;52.996;6.278;2023-07-20T07:10:36;1.77;;;1.05;;
51862;SDS011;37900;52.996;6.278;2023-07-20T07:13:02;2.70;;;1.73;;
51862;SDS011;37900;52.996;6.278;2023-07-20T07:15:28;4.30;;;2.00;;
51862;SDS011;37900;52.996;6.278;2023-07-20T07:17:54;5.78;;;2.25;;
51862;SDS011;37900;52.996;6.278;2023-07-20T07:20:19;4.68;;;2.53;;
51862;SDS011;37900;52.996;6.278;2023-07-20T07:22:47;6.13;;;2.55;;
51862;SDS011;37900;52.996;6.278;2023-07-20T07:25:16;4.22;;;2.13;;
51862;SDS011;37900;52.996;6.278;2023-07-20T07:27:41;5.53;;;2.20;;
51862;SDS011;37900;52.996;6.278;2023-07-20T07:30:07;4.88;;;2.70;;
51862;SDS011;37900;52.996;6.278;2023-07-20T07:32:33;6.25;;;2.28;;
51862;SDS011;37900;52.996;6.278;2023-07-20T07:34:59;3.95;;;2.38;;
51862;SDS011;37900;52.996;6.278;2023-07-20T07:37:25;3.67;;;2.17;;
51862;SDS011;37900;52.996;6.278;2023-07-20T07:39:51;4.88;;;2.28;;
51862;SDS011;37900;52.996;6.278;2023-07-20T07:42:17;5.25;;;2.30;;
51862;SDS011;37900;52.996;6.278;2023-07-20T07:44:43;7.90;;;2.30;;
51862;SDS011;37900;52.996;6.278;2023-07-20T07:47:10;4.38;;;2.05;;
51862;SDS011;37900;52.996;6.278;2023-07-20T07:49:36;5.43;;;2.08;;
51862;SDS011;37900;52.996;6.278;2023-07-20T07:52:02;3.97;;;2.00;;
51862;SDS011;37900;52.996;6.278;2023-07-20T07:54:28;6.20;;;1.92;;
51862;SDS011;37900;52.996;6.278;2023-07-20T07:56:54;6.03;;;2.17;;
51862;SDS011;37900;52.996;6.278;2023-07-20T07:59:20;4.78;;;2.00;;
51862;SDS011;37900;52.996;6.278;2023-07-20T08:01:46;2.67;;;1.75;;
51862;SDS011;37900;52.996;6.278;2023-07-20T08:04:11;3.13;;;1.63;;
51862;SDS011;37900;52.996;6.278;2023-07-20T08:06:38;3.72;;;1.80;;
51862;SDS011;37900;52.996;6.278;2023-07-20T08:09:04;3.47;;;1.77;;
51862;SDS011;37900;52.996;6.278;2023-07-20T08:11:30;4.03;;;1.75;;
51862;SDS011;37900;52.996;6.278;2023-07-20T08:13:58;3.60;;;1.67;;
51862;SDS011;37900;52.996;6.278;2023-07-20T08:16:27;3.50;;;1.63;;
51862;SDS011;37900;52.996;6.278;2023-07-20T08:18:53;3.83;;;1.90;;
51862;SDS011;37900;52.996;6.278;2023-07-20T08:21:18;4.50;;;1.67;;
51862;SDS011;37900;52.996;6.278;2023-07-20T08:23:44;3.85;;;1.90;;
51862;SDS011;37900;52.996;6.278;2023-07-20T08:26:10;4.63;;;2.00;;
51862;SDS011;37900;52.996;6.278;2023-07-20T08:28:35;3.03;;;1.73;;
51862;SDS011;37900;52.996;6.278;2023-07-20T08:31:01;2.85;;;1.40;;
51862;SDS011;37900;52.996;6.278;2023-07-20T08:33:27;3.00;;;1.57;;
51862;SDS011;37900;52.996;6.278;2023-07-20T08:35:54;2.60;;;1.50;;
51862;SDS011;37900;52.996;6.278;2023-07-20T08:38:21;3.72;;;1.88;;
51862;SDS011;37900;52.996;6.278;2023-07-20T08:40:47;2.75;;;1.45;;
51862;SDS011;37900;52.996;6.278;2023-07-20T08:43:13;3.45;;;1.42;;
51862;SDS011;37900;52.996;6.278;2023-07-20T08:45:41;3.00;;;1.63;;
51862;SDS011;37900;52.996;6.278;2023-07-20T08:48:08;3.63;;;1.40;;
51862;SDS011;37900;52.996;6.278;2023-07-20T08:50:35;3.92;;;1.42;;
51862;SDS011;37900;52.996;6.278;2023-07-20T08:53:01;5.47;;;2.83;;
51862;SDS011;37900;52.996;6.278;2023-07-20T08:55:28;3.35;;;1.60;;
51862;SDS011;37900;52.996;6.278;2023-07-20T08:57:55;2.65;;;1.52;;
51862;SDS011;37900;52.996;6.278;2023-07-20T09:02:52;2.08;;;1.40;;
51862;SDS011;37900;52.996;6.278;2023-07-20T09:05:23;2.25;;;1.55;;
51862;SDS011;37900;52.996;6.278;2023-07-20T09:07:52;6.05;;;1.60;;
51862;SDS011;37900;52.996;6.278;2023-07-20T09:10:19;3.38;;;1.35;;
51862;SDS011;37900;52.996;6.278;2023-07-20T09:12:46;2.42;;;1.60;;
51862;SDS011;37900;52.996;6.278;2023-07-20T09:15:12;4.25;;;1.80;;
51862;SDS011;37900;52.996;6.278;2023-07-20T09:17:38;3.30;;;1.60;;
51862;SDS011;37900;52.996;6.278;2023-07-20T09:20:04;2.60;;;1.67;;
51862;SDS011;37900;52.996;6.278;2023-07-20T09:22:37;3.60;;;1.30;;
51862;SDS011;37900;52.996;6.278;2023-07-20T09:25:14;3.53;;;1.92;;
51862;SDS011;37900;52.996;6.278;2023-07-20T09:27:41;2.45;;;1.77;;
51862;SDS011;37900;52.996;6.278;2023-07-20T09:30:09;2.38;;;1.65;;
51862;SDS011;37900;52.996;6.278;2023-07-20T09:32:42;2.30;;;1.70;;
51862;SDS011;37900;52.996;6.278;2023-07-20T09:37:39;3.00;;;1.67;;
51862;SDS011;37900;52.996;6.278;2023-07-20T09:40:08;2.55;;;1.60;;
51862;SDS011;37900;52.996;6.278;2023-07-20T09:42:34;3.42;;;1.55;;
51862;SDS011;37900;52.996;6.278;2023-07-20T09:45:01;1.75;;;1.35;;
51862;SDS011;37900;52.996;6.278;2023-07-20T09:47:27;3.42;;;1.60;;
51862;SDS011;37900;52.996;6.278;2023-07-20T09:49:58;1.97;;;1.40;;
51862;SDS011;37900;52.996;6.278;2023-07-20T09:52:28;2.80;;;1.40;;
51862;SDS011;37900;52.996;6.278;2023-07-20T09:54:54;3.10;;;1.73;;
51862;SDS011;37900;52.996;6.278;2023-07-20T09:57:21;2.40;;;1.42;;
51862;SDS011;37900;52.996;6.278;2023-07-20T09:59:47;4.43;;;1.60;;
51862;SDS011;37900;52.996;6.278;2023-07-20T10:02:17;2.58;;;1.30;;
51862;SDS011;37900;52.996;6.278;2023-07-20T10:04:47;3.67;;;1.58;;
51862;SDS011;37900;52.996;6.278;2023-07-20T10:07:17;3.25;;;1.10;;
51862;SDS011;37900;52.996;6.278;2023-07-20T10:09:46;5.32;;;1.75;;
51862;SDS011;37900;52.996;6.278;2023-07-20T10:14:41;2.28;;;1.60;;
51862;SDS011;37900;52.996;6.278;2023-07-20T10:17:16;2.63;;;1.60;;
51862;SDS011;37900;52.996;6.278;2023-07-20T10:19:44;4.22;;;1.60;;
51862;SDS011;37900;52.996;6.278;2023-07-20T10:22:16;5.28;;;1.48;;
51862;SDS011;37900;52.996;6.278;2023-07-20T10:24:45;2.35;;;1.70;;
51862;SDS011;37900;52.996;6.278;2023-07-20T10:27:15;8.48;;;2.75;;
51862;SDS011;37900;52.996;6.278;2023-07-20T10:29:41;9.98;;;4.20;;
51862;SDS011;37900;52.996;6.278;2023-07-20T10:32:08;9.43;;;4.15;;
51862;SDS011;37900;52.996;6.278;2023-07-20T10:34:35;8.70;;;3.05;;
51862;SDS011;37900;52.996;6.278;2023-07-20T10:37:01;6.10;;;2.63;;
51862;SDS011;37900;52.996;6.278;2023-07-20T10:39:27;7.13;;;2.85;;
51862;SDS011;37900;52.996;6.278;2023-07-20T10:42:09;7.65;;;2.92;;
51862;SDS011;37900;52.996;6.278;2023-07-20T10:44:38;6.47;;;2.42;;
51862;SDS011;37900;52.996;6.278;2023-07-20T10:47:08;8.38;;;2.95;;
51862;SDS011;37900;52.996;6.278;2023-07-20T10:49:35;4.47;;;2.78;;
51862;SDS011;37900;52.996;6.278;2023-07-20T10:52:25;8.80;;;3.25;;
51862;SDS011;37900;52.996;6.278;2023-07-20T10:54:51;12.25;;;2.95;;
51862;SDS011;37900;52.996;6.278;2023-07-20T10:57:30;5.93;;;2.65;;
51862;SDS011;37900;52.996;6.278;2023-07-20T11:00:10;7.00;;;2.83;;
51862;SDS011;37900;52.996;6.278;2023-07-20T11:02:47;4.82;;;2.42;;
51862;SDS011;37900;52.996;6.278;2023-07-20T11:08:00;6.68;;;2.65;;
51862;SDS011;37900;52.996;6.278;2023-07-20T11:10:29;6.75;;;2.60;;
51862;SDS011;37900;52.996;6.278;2023-07-20T11:15:52;5.65;;;2.80;;
51862;SDS011;37900;52.996;6.278;2023-07-20T11:18:32;5.38;;;2.53;;
51862;SDS011;37900;52.996;6.278;2023-07-20T11:21:04;4.15;;;2.03;;
51862;SDS011;37900;52.996;6.278;2023-07-20T11:23:32;4.07;;;1.85;;
51862;SDS011;37900;52.996;6.278;2023-07-20T11:25:59;4.18;;;2.30;;
51862;SDS011;37900;52.996;6.278;2023-07-20T11:28:25;4.77;;;2.37;;
51862;SDS011;37900;52.996;6.278;2023-07-20T11:30:54;6.63;;;3.15;;
51862;SDS011;37900;52.996;6.278;2023-07-20T11:33:20;6.00;;;2.33;;
51862;SDS011;37900;52.996;6.278;2023-07-20T11:35:46;7.10;;;2.90;;
51862;SDS011;37900;52.996;6.278;2023-07-20T11:38:15;4.47;;;2.33;;
51862;SDS011;37900;52.996;6.278;2023-07-20T11:40:45;5.55;;;2.03;;
51862;SDS011;37900;52.996;6.278;2023-07-20T11:43:14;4.28;;;2.13;;
51862;SDS011;37900;52.996;6.278;2023-07-20T11:45:40;6.88;;;2.95;;
51862;SDS011;37900;52.996;6.278;2023-07-20T11:48:06;4.60;;;2.50;;
51862;SDS011;37900;52.996;6.278;2023-07-20T11:50:31;6.63;;;2.53;;
51862;SDS011;37900;52.996;6.278;2023-07-20T11:53:03;5.97;;;2.55;;
51862;SDS011;37900;52.996;6.278;2023-07-20T11:55:29;4.60;;;2.53;;
51862;SDS011;37900;52.996;6.278;2023-07-20T11:58:04;6.13;;;2.55;;
51862;SDS011;37900;52.996;6.278;2023-07-20T12:00:30;4.53;;;2.30;;
51862;SDS011;37900;52.996;6.278;2023-07-20T12:05:23;4.40;;;2.35;;
51862;SDS011;37900;52.996;6.278;2023-07-20T12:07:49;5.30;;;2.72;;
51862;SDS011;37900;52.996;6.278;2023-07-20T12:10:25;6.57;;;2.45;;
51862;SDS011;37900;52.996;6.278;2023-07-20T12:12:52;4.15;;;2.38;;
51862;SDS011;37900;52.996;6.278;2023-07-20T12:15:22;5.60;;;2.47;;
51862;SDS011;37900;52.996;6.278;2023-07-20T12:17:49;4.75;;;2.33;;
51862;SDS011;37900;52.996;6.278;2023-07-20T12:20:32;6.28;;;2.67;;
51862;SDS011;37900;52.996;6.278;2023-07-20T12:23:12;4.05;;;2.05;;
51862;SDS011;37900;52.996;6.278;2023-07-20T12:25:46;4.75;;;2.55;;
51862;SDS011;37900;52.996;6.278;2023-07-20T12:28:13;5.78;;;2.30;;
51862;SDS011;37900;52.996;6.278;2023-07-20T12:30:41;5.35;;;2.55;;
51862;SDS011;37900;52.996;6.278;2023-07-20T12:33:07;3.95;;;2.40;;
51862;SDS011;37900;52.996;6.278;2023-07-20T12:35:33;7.88;;;2.65;;
51862;SDS011;37900;52.996;6.278;2023-07-20T12:37:59;5.60;;;2.45;;
51862;SDS011;37900;52.996;6.278;2023-07-20T12:40:25;2.67;;;2.10;;
51862;SDS011;37900;52.996;6.278;2023-07-20T12:42:51;4.18;;;2.65;;
51862;SDS011;37900;52.996;6.278;2023-07-20T12:45:17;6.88;;;2.47;;
51862;SDS011;37900;52.996;6.278;2023-07-20T12:47:43;3.05;;;2.00;;
51862;SDS011;37900;52.996;6.278;2023-07-20T12:50:11;3.78;;;2.22;;
51862;SDS011;37900;52.996;6.278;2023-07-20T12:52:38;8.20;;;2.63;;
51862;SDS011;37900;52.996;6.278;2023-07-20T12:55:04;3.70;;;2.28;;
51862;SDS011;37900;52.996;6.278;2023-07-20T12:59:58;3.90;;;2.38;;
51862;SDS011;37900;52.996;6.278;2023-07-20T13:02:23;3.65;;;2.20;;
51862;SDS011;37900;52.996;6.278;2023-07-20T13:04:49;4.00;;;2.50;;
51862;SDS011;37900;52.996;6.278;2023-07-20T13:07:15;6.85;;;3.13;;
51862;SDS011;37900;52.996;6.278;2023-07-20T13:09:40;4.28;;;2.38;;
51862;SDS011;37900;52.996;6.278;2023-07-20T13:12:06;4.45;;;2.30;;
51862;SDS011;37900;52.996;6.278;2023-07-20T13:14:32;9.70;;;2.40;;
51862;SDS011;37900;52.996;6.278;2023-07-20T13:16:58;5.28;;;2.25;;
51862;SDS011;37900;52.996;6.278;2023-07-20T13:19:24;4.75;;;2.75;;
51862;SDS011;37900;52.996;6.278;2023-07-20T13:21:49;6.20;;;2.53;;
51862;SDS011;37900;52.996;6.278;2023-07-20T13:24:15;7.60;;;2.22;;
51862;SDS011;37900;52.996;6.278;2023-07-20T13:26:41;9.43;;;2.40;;
51862;SDS011;37900;52.996;6.278;2023-07-20T13:29:06;7.03;;;2.45;;
51862;SDS011;37900;52.996;6.278;2023-07-20T13:31:32;3.72;;;1.73;;
51862;SDS011;37900;52.996;6.278;2023-07-20T13:33:58;5.55;;;2.45;;
51862;SDS011;37900;52.996;6.278;2023-07-20T13:36:24;4.65;;;2.00;;
51862;SDS011;37900;52.996;6.278;2023-07-20T13:38:49;5.60;;;2.45;;
51862;SDS011;37900;52.996;6.278;2023-07-20T13:41:15;5.55;;;2.28;;
51862;SDS011;37900;52.996;6.278;2023-07-20T13:43:43;4.32;;;1.98;;
51862;SDS011;37900;52.996;6.278;2023-07-20T13:46:09;6.50;;;2.08;;
51862;SDS011;37900;52.996;6.278;2023-07-20T13:48:35;4.03;;;1.90;;
51862;SDS011;37900;52.996;6.278;2023-07-20T13:51:00;6.45;;;2.08;;
51862;SDS011;37900;52.996;6.278;2023-07-20T13:53:26;5.43;;;1.67;;
51862;SDS011;37900;52.996;6.278;2023-07-20T13:55:53;4.82;;;2.00;;
51862;SDS011;37900;52.996;6.278;2023-07-20T13:58:18;3.00;;;2.03;;
51862;SDS011;37900;52.996;6.278;2023-07-20T14:00:44;4.70;;;2.03;;
51862;SDS011;37900;52.996;6.278;2023-07-20T14:03:10;5.50;;;2.08;;
51862;SDS011;37900;52.996;6.278;2023-07-20T14:05:35;4.15;;;2.03;;
51862;SDS011;37900;52.996;6.278;2023-07-20T14:08:01;3.85;;;2.20;;
51862;SDS011;37900;52.996;6.278;2023-07-20T14:10:27;4.40;;;2.22;;
51862;SDS011;37900;52.996;6.278;2023-07-20T14:12:52;2.88;;;2.00;;
51862;SDS011;37900;52.996;6.278;2023-07-20T14:15:18;2.00;;;1.42;;
51862;SDS011;37900;52.996;6.278;2023-07-20T14:17:45;4.05;;;2.08;;
51862;SDS011;37900;52.996;6.278;2023-07-20T14:20:10;8.63;;;2.53;;
51862;SDS011;37900;52.996;6.278;2023-07-20T14:22:36;4.40;;;2.05;;
51862;SDS011;37900;52.996;6.278;2023-07-20T14:25:02;2.47;;;1.55;;
51862;SDS011;37900;52.996;6.278;2023-07-20T14:27:28;5.38;;;2.38;;
51862;SDS011;37900;52.996;6.278;2023-07-20T14:29:54;3.42;;;1.90;;
51862;SDS011;37900;52.996;6.278;2023-07-20T14:32:20;3.30;;;1.77;;
51862;SDS011;37900;52.996;6.278;2023-07-20T14:34:46;5.60;;;1.77;;
51862;SDS011;37900;52.996;6.278;2023-07-20T14:37:12;4.70;;;1.85;;
51862;SDS011;37900;52.996;6.278;2023-07-20T14:39:38;4.40;;;2.35;;
51862;SDS011;37900;52.996;6.278;2023-07-20T14:42:04;2.95;;;1.60;;
51862;SDS011;37900;52.996;6.278;2023-07-20T14:44:30;3.33;;;1.80;;
51862;SDS011;37900;52.996;6.278;2023-07-20T14:46:55;3.97;;;1.80;;
51862;SDS011;37900;52.996;6.278;2023-07-20T14:49:21;4.82;;;2.03;;
51862;SDS011;37900;52.996;6.278;2023-07-20T14:51:47;3.00;;;1.77;;
51862;SDS011;37900;52.996;6.278;2023-07-20T14:54:13;3.85;;;1.80;;
51862;SDS011;37900;52.996;6.278;2023-07-20T14:56:39;3.63;;;1.90;;
51862;SDS011;37900;52.996;6.278;2023-07-20T14:59:13;3.50;;;1.50;;
51862;SDS011;37900;52.996;6.278;2023-07-20T15:01:39;3.00;;;1.90;;
51862;SDS011;37900;52.996;6.278;2023-07-20T15:04:04;3.75;;;1.95;;
51862;SDS011;37900;52.996;6.278;2023-07-20T15:06:30;8.20;;;1.83;;
51862;SDS011;37900;52.996;6.278;2023-07-20T15:08:57;2.85;;;1.60;;
51862;SDS011;37900;52.996;6.278;2023-07-20T15:11:22;3.17;;;1.65;;
51862;SDS011;37900;52.996;6.278;2023-07-20T15:13:49;6.07;;;2.30;;
51862;SDS011;37900;52.996;6.278;2023-07-20T15:16:14;2.78;;;1.85;;
51862;SDS011;37900;52.996;6.278;2023-07-20T15:18:40;4.18;;;2.00;;